Time;durP1;ratioP1;P1;durP2;ratioP2;P2;SDS_P1;SDS_P2;PMS_P1;PMS_P2;Temp;Humidity;BMP_temperature;BMP_pressure;BME280_temperature;BME280_humidity;BME280_pressure;Samples;Min_cycle;Max_cycle;Signal;HPM_P1;HPM_P2
2022/05/17 00:00:48;;;;;;;3.70;3.45;;;;;;;;;;5049130;28;20267;-59
2022/05/17 00:03:15;;;;;;;4.60;3.03;;;;;;;;;;5057924;28;20281;-59
2022/05/17 00:05:43;;;;;;;3.47;3.28;;;;;;;;;;5055109;28;20389;-59
2022/05/17 00:08:11;;;;;;;4.88;3.50;;;;;;;;;;5056626;28;20274;-59
2022/05/17 00:10:38;;;;;;;3.35;3.15;;;;;;;;;;5055304;28;20703;-59
2022/05/17 00:13:05;;;;;;;4.22;3.47;;;;;;;;;;5056247;28;21017;-59
2022/05/17 00:15:32;;;;;;;4.72;3.38;;;;;;;;;;5055811;28;20269;-59
2022/05/17 00:17:59;;;;;;;7.00;3.45;;;;;;;;;;5056866;28;20250;-59
2022/05/17 00:20:26;;;;;;;3.30;3.10;;;;;;;;;;5058137;28;20261;-59
2022/05/17 00:22:55;;;;;;;3.45;3.20;;;;;;;;;;5055333;28;20195;-59
2022/05/17 00:25:23;;;;;;;4.25;3.95;;;;;;;;;;5065851;28;20264;-59
2022/05/17 00:27:50;;;;;;;3.70;3.40;;;;;;;;;;5066823;28;20274;-59
2022/05/17 00:30:17;;;;;;;4.50;3.90;;;;;;;;;;5066689;28;20203;-59
2022/05/17 00:32:44;;;;;;;3.90;3.60;;;;;;;;;;5066425;28;20304;-59
2022/05/17 00:35:11;;;;;;;3.42;3.22;;;;;;;;;;5062647;28;20211;-59
2022/05/17 00:37:39;;;;;;;3.63;3.33;;;;;;;;;;5047299;28;20227;-60
2022/05/17 00:40:08;;;;;;;3.90;3.70;;;;;;;;;;5047805;28;20481;-59
2022/05/17 00:42:35;;;;;;;3.15;3.03;;;;;;;;;;5047815;28;20212;-59
2022/05/17 00:45:02;;;;;;;4.85;3.42;;;;;;;;;;5047976;28;20262;-59
2022/05/17 00:47:31;;;;;;;6.30;3.42;;;;;;;;;;5047843;28;20841;-60
2022/05/17 00:50:01;;;;;;;6.30;3.42;;;;;;;;;;5047326;28;20208;-59
2022/05/17 00:52:43;;;;;;;3.70;3.50;;;;;;;;;;5047383;28;20372;-59
2022/05/17 00:55:13;;;;;;;2.88;2.78;;;;;;;;;;5058426;28;20207;-60
2022/05/17 00:57:43;;;;;;;3.03;2.83;;;;;;;;;;5060024;28;20712;-59
2022/05/17 01:00:12;;;;;;;3.70;3.40;;;;;;;;;;5049687;28;20457;-59
2022/05/17 01:02:40;;;;;;;3.28;3.08;;;;;;;;;;5048727;28;20290;-60
2022/05/17 01:05:08;;;;;;;3.20;3.00;;;;;;;;;;5049087;28;20211;-60
2022/05/17 01:07:39;;;;;;;3.80;3.50;;;;;;;;;;5061226;28;20218;-60
2022/05/17 01:10:06;;;;;;;3.75;3.45;;;;;;;;;;5061680;28;20207;-59
2022/05/17 01:12:36;;;;;;;5.50;3.70;;;;;;;;;;5057653;28;20649;-59
2022/05/17 01:15:02;;;;;;;3.90;3.15;;;;;;;;;;5062983;28;20227;-59
2022/05/17 01:17:32;;;;;;;4.35;3.97;;;;;;;;;;5057547;28;20231;-60
2022/05/17 01:19:59;;;;;;;4.18;3.75;;;;;;;;;;5066610;28;20207;-60
2022/05/17 01:22:27;;;;;;;3.65;3.35;;;;;;;;;;5061877;28;20279;-59
2022/05/17 01:24:55;;;;;;;4.78;3.38;;;;;;;;;;5065220;28;20284;-60
2022/05/17 01:27:26;;;;;;;4.75;3.70;;;;;;;;;;5063377;28;20200;-60
2022/05/17 01:29:54;;;;;;;3.72;3.42;;;;;;;;;;5071178;28;20301;-59
2022/05/17 01:32:22;;;;;;;3.80;3.58;;;;;;;;;;5063340;28;20295;-59
2022/05/17 01:34:49;;;;;;;4.00;3.60;;;;;;;;;;5061177;28;20264;-60
2022/05/17 01:37:16;;;;;;;5.80;3.53;;;;;;;;;;5065199;28;20277;-60
2022/05/17 01:39:45;;;;;;;3.70;3.40;;;;;;;;;;5066525;28;20207;-60
2022/05/17 01:42:13;;;;;;;4.38;3.38;;;;;;;;;;5054580;28;20203;-60
2022/05/17 01:44:41;;;;;;;3.20;3.00;;;;;;;;;;5060880;28;20214;-59
2022/05/17 01:47:08;;;;;;;4.53;3.17;;;;;;;;;;5063139;28;20674;-59
2022/05/17 01:49:35;;;;;;;3.45;3.15;;;;;;;;;;5055441;28;20252;-59
2022/05/17 01:52:02;;;;;;;3.33;3.03;;;;;;;;;;5068839;28;20261;-59
2022/05/17 01:54:29;;;;;;;3.35;3.15;;;;;;;;;;5066500;28;20289;-60
2022/05/17 01:56:57;;;;;;;3.63;3.38;;;;;;;;;;5050966;28;20366;-59
2022/05/17 01:59:24;;;;;;;3.97;3.50;;;;;;;;;;5051065;28;20231;-59
2022/05/17 02:01:52;;;;;;;2.75;2.58;;;;;;;;;;5051201;28;20285;-60
2022/05/17 02:04:19;;;;;;;3.53;3.30;;;;;;;;;;5054893;28;20559;-59
2022/05/17 02:06:45;;;;;;;3.55;3.35;;;;;;;;;;5065794;28;20203;-59
2022/05/17 02:09:13;;;;;;;3.38;3.08;;;;;;;;;;5070268;28;20715;-59
2022/05/17 02:11:40;;;;;;;3.72;3.40;;;;;;;;;;5052087;28;20662;-60
2022/05/17 02:14:08;;;;;;;3.53;3.10;;;;;;;;;;5053634;28;20779;-59
2022/05/17 02:16:37;;;;;;;3.13;2.95;;;;;;;;;;5058568;28;20258;-59
2022/05/17 02:19:04;;;;;;;3.58;3.30;;;;;;;;;;5050818;28;20344;-59
2022/05/17 02:21:31;;;;;;;4.93;3.10;;;;;;;;;;5064943;28;20207;-60
2022/05/17 02:23:58;;;;;;;3.10;2.90;;;;;;;;;;5054049;28;20261;-59
2022/05/17 02:26:25;;;;;;;3.07;2.90;;;;;;;;;;5053375;28;20204;-59
2022/05/17 02:28:52;;;;;;;2.92;2.83;;;;;;;;;;5051684;28;20204;-59
2022/05/17 02:31:20;;;;;;;2.85;2.72;;;;;;;;;;5063685;28;20222;-59
2022/05/17 02:33:47;;;;;;;4.00;2.97;;;;;;;;;;5061924;28;20207;-59
2022/05/17 02:36:15;;;;;;;3.10;2.90;;;;;;;;;;5056771;28;20203;-59
2022/05/17 02:38:43;;;;;;;2.73;2.57;;;;;;;;;;5066718;28;20219;-60
2022/05/17 02:41:11;;;;;;;4.00;3.60;;;;;;;;;;5067856;28;20571;-59
2022/05/17 02:43:38;;;;;;;4.28;3.85;;;;;;;;;;5050219;28;20495;-60
2022/05/17 02:46:05;;;;;;;3.03;2.92;;;;;;;;;;5056252;28;20685;-60
2022/05/17 02:48:33;;;;;;;2.65;2.55;;;;;;;;;;5068236;28;20199;-60
2022/05/17 02:51:07;;;;;;;3.03;2.83;;;;;;;;;;5056135;28;20196;-60
2022/05/17 02:53:34;;;;;;;3.00;2.80;;;;;;;;;;5064328;28;20210;-59
2022/05/17 02:56:01;;;;;;;2.80;2.70;;;;;;;;;;5064382;28;20823;-59
2022/05/17 02:58:28;;;;;;;3.00;2.80;;;;;;;;;;5050897;28;20230;-59
2022/05/17 03:00:55;;;;;;;4.78;2.97;;;;;;;;;;5055943;28;20203;-60
2022/05/17 03:03:22;;;;;;;2.97;2.87;;;;;;;;;;5057949;28;20207;-59
2022/05/17 03:05:51;;;;;;;2.90;2.70;;;;;;;;;;5056648;28;20730;-59
2022/05/17 03:08:18;;;;;;;3.40;3.10;;;;;;;;;;5055113;28;20232;-59
2022/05/17 03:10:45;;;;;;;3.13;3.03;;;;;;;;;;5049496;28;20212;-59
2022/05/17 03:13:12;;;;;;;3.00;2.80;;;;;;;;;;5065049;28;20218;-58
2022/05/17 03:15:39;;;;;;;3.47;3.27;;;;;;;;;;5064807;28;20211;-59
2022/05/17 03:18:06;;;;;;;3.20;3.00;;;;;;;;;;5066661;28;20222;-59
2022/05/17 03:20:33;;;;;;;3.27;2.77;;;;;;;;;;5050417;28;20244;-59
2022/05/17 03:23:02;;;;;;;2.40;2.30;;;;;;;;;;5065266;28;20260;-60
2022/05/17 03:25:29;;;;;;;2.40;2.30;;;;;;;;;;5052101;28;20207;-59
2022/05/17 03:27:56;;;;;;;2.67;2.57;;;;;;;;;;5049056;28;20253;-59
2022/05/17 03:30:23;;;;;;;3.63;2.80;;;;;;;;;;5048790;28;20200;-59
2022/05/17 03:32:51;;;;;;;3.27;3.00;;;;;;;;;;5048238;28;20826;-60
2022/05/17 03:35:18;;;;;;;3.00;2.80;;;;;;;;;;5049015;28;20207;-59
2022/05/17 03:37:45;;;;;;;3.00;2.80;;;;;;;;;;5048449;28;20199;-59
2022/05/17 03:40:14;;;;;;;2.87;2.67;;;;;;;;;;5048412;28;20211;-59
2022/05/17 03:42:41;;;;;;;4.50;2.90;;;;;;;;;;5048198;28;20207;-59
2022/05/17 03:45:09;;;;;;;3.10;2.83;;;;;;;;;;5048612;28;20203;-60
2022/05/17 03:47:36;;;;;;;3.27;2.97;;;;;;;;;;5048045;28;20207;-58
2022/05/17 03:50:04;;;;;;;4.53;3.07;;;;;;;;;;5048745;28;20210;-58
2022/05/17 03:52:32;;;;;;;4.40;2.87;;;;;;;;;;5047466;28;20215;-58
2022/05/17 03:55:00;;;;;;;3.33;3.07;;;;;;;;;;5062987;28;20293;-59
2022/05/17 03:57:29;;;;;;;3.87;2.90;;;;;;;;;;5055993;28;21271;-58
2022/05/17 03:59:56;;;;;;;2.97;2.77;;;;;;;;;;5054262;28;20227;-58
2022/05/17 04:02:23;;;;;;;3.43;2.80;;;;;;;;;;5047968;28;20199;-58
2022/05/17 04:04:52;;;;;;;3.63;2.77;;;;;;;;;;5047978;28;20207;-59
2022/05/17 04:07:19;;;;;;;3.30;3.10;;;;;;;;;;5048207;28;20327;-58
2022/05/17 04:09:46;;;;;;;3.20;3.00;;;;;;;;;;5048489;28;20572;-58
2022/05/17 04:12:13;;;;;;;2.90;2.70;;;;;;;;;;5048091;28;20200;-59
2022/05/17 04:14:42;;;;;;;2.47;2.47;;;;;;;;;;5047800;28;20942;-59
2022/05/17 04:17:10;;;;;;;2.60;2.50;;;;;;;;;;5054076;28;20643;-58
2022/05/17 04:19:37;;;;;;;3.80;2.87;;;;;;;;;;5048411;28;20273;-58
2022/05/17 04:22:07;;;;;;;3.33;2.93;;;;;;;;;;5047879;28;20291;-59
2022/05/17 04:24:34;;;;;;;3.40;2.95;;;;;;;;;;5048688;28;20667;-59
2022/05/17 04:27:01;;;;;;;3.20;3.00;;;;;;;;;;5055978;28;20620;-59
2022/05/17 04:29:28;;;;;;;2.97;2.78;;;;;;;;;;5048186;28;20200;-59
2022/05/17 04:31:56;;;;;;;3.30;3.13;;;;;;;;;;5057904;28;20846;-60
2022/05/17 04:34:23;;;;;;;3.70;2.60;;;;;;;;;;5067620;28;20206;-59
2022/05/17 04:36:50;;;;;;;3.00;2.90;;;;;;;;;;5052631;28;20235;-59
2022/05/17 04:39:17;;;;;;;3.35;3.25;;;;;;;;;;5064452;28;20237;-59
2022/05/17 04:41:44;;;;;;;3.13;3.00;;;;;;;;;;5052483;28;20208;-59
2022/05/17 04:44:12;;;;;;;4.05;3.70;;;;;;;;;;5052375;28;20215;-59
2022/05/17 04:46:39;;;;;;;3.92;3.65;;;;;;;;;;5063921;28;20215;-59
2022/05/17 04:49:08;;;;;;;6.43;3.58;;;;;;;;;;5067632;28;20264;-59
2022/05/17 04:51:35;;;;;;;3.30;3.20;;;;;;;;;;5054320;28;20264;-59
2022/05/17 04:54:02;;;;;;;3.85;3.55;;;;;;;;;;5047767;28;20208;-59
2022/05/17 04:56:29;;;;;;;3.80;3.53;;;;;;;;;;5058351;28;20203;-59
2022/05/17 04:58:56;;;;;;;3.42;3.22;;;;;;;;;;5068396;28;20663;-59
2022/05/17 05:01:24;;;;;;;4.63;3.50;;;;;;;;;;5070918;28;20207;-59
2022/05/17 05:03:51;;;;;;;3.25;3.05;;;;;;;;;;5071471;28;20560;-59
2022/05/17 05:06:19;;;;;;;3.63;3.33;;;;;;;;;;5060509;28;20204;-59
2022/05/17 05:08:46;;;;;;;3.60;3.40;;;;;;;;;;5065107;28;20701;-60
2022/05/17 05:11:14;;;;;;;3.53;3.30;;;;;;;;;;5052797;28;20214;-60
2022/05/17 05:13:41;;;;;;;4.88;3.45;;;;;;;;;;5051579;28;20644;-59
2022/05/17 05:16:11;;;;;;;4.88;4.38;;;;;;;;;;5063790;28;20199;-59
2022/05/17 05:18:38;;;;;;;4.63;4.30;;;;;;;;;;5069752;28;20219;-59
2022/05/17 05:21:09;;;;;;;4.40;4.13;;;;;;;;;;5059009;28;20215;-59
2022/05/17 05:23:38;;;;;;;3.42;3.33;;;;;;;;;;5063242;28;20297;-58
2022/05/17 05:26:05;;;;;;;4.50;4.20;;;;;;;;;;5067051;28;20258;-59
2022/05/17 05:28:33;;;;;;;5.03;4.63;;;;;;;;;;5064383;28;20214;-59
2022/05/17 05:31:00;;;;;;;8.43;4.60;;;;;;;;;;5069460;28;20245;-59
2022/05/17 05:33:29;;;;;;;5.47;4.97;;;;;;;;;;5070659;28;20211;-59
2022/05/17 05:35:56;;;;;;;7.25;5.10;;;;;;;;;;5070671;28;20741;-59
2022/05/17 05:38:23;;;;;;;7.15;4.68;;;;;;;;;;5070953;28;20272;-58
2022/05/17 05:40:51;;;;;;;9.70;5.35;;;;;;;;;;5071225;28;20767;-59
2022/05/17 05:43:18;;;;;;;7.00;5.88;;;;;;;;;;5056386;28;20203;-59
2022/05/17 05:48:21;;;;;;;6.40;5.75;;;;;;;;;;5357771;22;20320;-60
2022/05/17 05:50:48;;;;;;;7.93;6.05;;;;;;;;;;5008572;28;20241;-59
2022/05/17 05:53:16;;;;;;;8.82;5.80;;;;;;;;;;5001124;28;20951;-60
2022/05/17 05:55:43;;;;;;;11.85;6.57;;;;;;;;;;4997049;28;20232;-59
2022/05/17 05:58:15;;;;;;;7.22;6.53;;;;;;;;;;4991399;28;20210;-59
2022/05/17 06:00:42;;;;;;;6.88;6.28;;;;;;;;;;4991470;28;20433;-60
2022/05/17 06:03:10;;;;;;;6.68;5.97;;;;;;;;;;5001435;28;20201;-59
2022/05/17 06:05:37;;;;;;;6.63;6.03;;;;;;;;;;4991358;28;20623;-60
2022/05/17 06:08:04;;;;;;;7.07;5.90;;;;;;;;;;5007771;28;20638;-59
2022/05/17 06:10:31;;;;;;;7.30;6.25;;;;;;;;;;5010846;28;20209;-60
2022/05/17 06:12:58;;;;;;;7.00;6.10;;;;;;;;;;5007351;28;20724;-60
2022/05/17 06:15:27;;;;;;;6.13;5.57;;;;;;;;;;4991136;28;20214;-59
2022/05/17 06:17:54;;;;;;;6.53;6.03;;;;;;;;;;4991256;28;20217;-58
2022/05/17 06:20:21;;;;;;;7.18;5.80;;;;;;;;;;4991090;28;20233;-58
2022/05/17 06:22:48;;;;;;;6.50;5.90;;;;;;;;;;5002326;28;20213;-59
2022/05/17 06:25:15;;;;;;;5.95;5.45;;;;;;;;;;4991364;28;20672;-60
2022/05/17 06:27:42;;;;;;;5.93;4.93;;;;;;;;;;4991048;28;20276;-60
2022/05/17 06:30:11;;;;;;;6.15;5.55;;;;;;;;;;4991988;28;20720;-59
2022/05/17 06:32:39;;;;;;;9.77;5.15;;;;;;;;;;4990838;28;20264;-59
2022/05/17 06:35:07;;;;;;;6.00;5.40;;;;;;;;;;4990998;28;20467;-59
2022/05/17 06:37:34;;;;;;;6.43;5.47;;;;;;;;;;4990990;28;20209;-60
2022/05/17 06:40:01;;;;;;;5.45;5.05;;;;;;;;;;4992884;28;20320;-60
2022/05/17 06:42:29;;;;;;;7.15;5.18;;;;;;;;;;4990528;28;20308;-59
2022/05/17 06:44:56;;;;;;;6.22;5.63;;;;;;;;;;4991690;28;20209;-59
2022/05/17 06:47:23;;;;;;;6.30;5.78;;;;;;;;;;4988392;28;20230;-59
2022/05/17 06:49:51;;;;;;;6.05;5.50;;;;;;;;;;5001146;28;20201;-59
2022/05/17 06:52:18;;;;;;;10.00;6.05;;;;;;;;;;5009700;28;20205;-61
2022/05/17 06:54:45;;;;;;;6.18;5.70;;;;;;;;;;4998228;28;20841;-60
2022/05/17 06:57:14;;;;;;;6.18;5.57;;;;;;;;;;4991443;28;20291;-60
2022/05/17 06:59:41;;;;;;;7.90;5.50;;;;;;;;;;4999267;28;20256;-60
2022/05/17 07:02:09;;;;;;;5.97;5.50;;;;;;;;;;5009860;28;20213;-60
2022/05/17 07:04:37;;;;;;;6.68;5.57;;;;;;;;;;4999359;28;20206;-60
2022/05/17 07:07:06;;;;;;;5.32;4.93;;;;;;;;;;4992126;28;20663;-60
2022/05/17 07:09:33;;;;;;;5.05;4.65;;;;;;;;;;4991281;28;20213;-59
2022/05/17 07:14:45;;;;;;;5.65;5.15;;;;;;;;;;5009694;28;20220;-58
2022/05/17 07:17:13;;;;;;;6.78;5.30;;;;;;;;;;4992289;28;20213;-58
2022/05/17 07:19:40;;;;;;;4.97;4.57;;;;;;;;;;4989201;28;20233;-58
2022/05/17 07:22:10;;;;;;;5.55;5.05;;;;;;;;;;4990873;28;20719;-59
2022/05/17 07:24:37;;;;;;;5.63;5.05;;;;;;;;;;4989714;28;20217;-58
2022/05/17 07:27:05;;;;;;;5.70;5.15;;;;;;;;;;4994067;28;20256;-58
2022/05/17 07:29:33;;;;;;;5.82;5.32;;;;;;;;;;4998859;28;20691;-58
2022/05/17 07:32:00;;;;;;;6.10;5.50;;;;;;;;;;5009374;28;20209;-59
2022/05/17 07:34:27;;;;;;;6.32;5.72;;;;;;;;;;4995626;28;20214;-58
2022/05/17 07:36:54;;;;;;;5.85;5.35;;;;;;;;;;4992447;28;20206;-59
2022/05/17 07:39:23;;;;;;;5.47;4.72;;;;;;;;;;4998905;28;20237;-58
2022/05/17 07:41:50;;;;;;;5.00;4.60;;;;;;;;;;5004826;28;20210;-59
2022/05/17 07:44:17;;;;;;;4.88;4.43;;;;;;;;;;4998434;28;20213;-59
2022/05/17 07:46:44;;;;;;;7.55;5.55;;;;;;;;;;5004279;28;20209;-61
2022/05/17 07:49:11;;;;;;;6.10;5.55;;;;;;;;;;4997091;28;20213;-60
2022/05/17 07:51:38;;;;;;;5.35;4.88;;;;;;;;;;5009185;28;20205;-61
2022/05/17 07:54:06;;;;;;;7.18;4.75;;;;;;;;;;5007731;28;20255;-61
2022/05/17 07:56:35;;;;;;;5.10;4.70;;;;;;;;;;4999892;28;20676;-59
2022/05/17 07:59:02;;;;;;;4.40;4.00;;;;;;;;;;4993001;28;20209;-59
2022/05/17 08:01:29;;;;;;;7.40;5.00;;;;;;;;;;5008695;28;20236;-59
2022/05/17 08:03:56;;;;;;;4.65;4.35;;;;;;;;;;5007265;28;20205;-61
2022/05/17 08:06:23;;;;;;;4.38;3.88;;;;;;;;;;5004829;28;20202;-59
2022/05/17 08:08:50;;;;;;;4.40;4.00;;;;;;;;;;4998720;28;20229;-59
2022/05/17 08:11:17;;;;;;;4.85;4.45;;;;;;;;;;4989949;28;20201;-60
2022/05/17 08:13:46;;;;;;;4.90;4.47;;;;;;;;;;4990250;28;20271;-60
2022/05/17 08:16:13;;;;;;;5.07;4.57;;;;;;;;;;4989317;28;20205;-60
2022/05/17 08:18:40;;;;;;;3.72;3.42;;;;;;;;;;5007433;28;20204;-61
2022/05/17 08:21:07;;;;;;;3.95;3.75;;;;;;;;;;5008848;28;20311;-61
2022/05/17 08:23:34;;;;;;;3.85;3.60;;;;;;;;;;5004117;28;20209;-61
2022/05/17 08:28:48;;;;;;;3.80;3.60;;;;;;;;;;4992273;28;20294;-59
2022/05/17 08:31:15;;;;;;;4.05;3.75;;;;;;;;;;4995313;28;20288;-63
2022/05/17 08:33:42;;;;;;;3.60;3.50;;;;;;;;;;5005478;28;20600;-59
2022/05/17 08:36:10;;;;;;;4.60;4.20;;;;;;;;;;5011064;28;20205;-60
2022/05/17 08:38:39;;;;;;;4.22;3.53;;;;;;;;;;5012232;28;20216;-59
2022/05/17 08:41:07;;;;;;;5.20;4.03;;;;;;;;;;5000045;28;20229;-59
2022/05/17 08:43:47;;;;;;;2.95;2.80;;;;;;;;;;4992924;28;20213;-59
2022/05/17 08:46:22;;;;;;;4.60;2.65;;;;;;;;;;5008390;28;20216;-61
2022/05/17 08:48:52;;;;;;;2.92;2.72;;;;;;;;;;4995205;28;20241;-59
2022/05/17 08:51:24;;;;;;;3.53;3.10;;;;;;;;;;4999105;28;20225;-59
2022/05/17 08:53:51;;;;;;;2.50;2.40;;;;;;;;;;4992690;28;20305;-59
2022/05/17 08:56:18;;;;;;;4.68;2.53;;;;;;;;;;4995156;28;20206;-59
2022/05/17 08:58:47;;;;;;;3.63;1.75;;;;;;;;;;4996133;28;20236;-59
2022/05/17 09:01:19;;;;;;;2.13;1.38;;;;;;;;;;4996474;28;20237;-59
2022/05/17 09:03:52;;;;;;;9.32;2.25;;;;;;;;;;4984707;28;20249;-60
2022/05/17 09:06:25;;;;;;;2.78;2.13;;;;;;;;;;4999690;28;20216;-60
2022/05/17 09:08:59;;;;;;;1.65;1.58;;;;;;;;;;4997808;28;20728;-60
2022/05/17 09:11:32;;;;;;;2.05;1.50;;;;;;;;;;4992127;28;20201;-59
2022/05/17 09:14:02;;;;;;;2.20;1.45;;;;;;;;;;4993302;28;20578;-59
2022/05/17 09:16:32;;;;;;;1.33;1.10;;;;;;;;;;4996581;28;20280;-59
2022/05/17 09:19:01;;;;;;;3.75;1.52;;;;;;;;;;5009853;28;20209;-59
2022/05/17 09:21:30;;;;;;;2.28;1.15;;;;;;;;;;4989873;28;20233;-59
2022/05/17 09:23:58;;;;;;;1.65;1.50;;;;;;;;;;4991232;28;20218;-59
2022/05/17 09:26:26;;;;;;;1.52;1.42;;;;;;;;;;4990486;28;20201;-59
2022/05/17 09:28:56;;;;;;;3.08;1.60;;;;;;;;;;4995247;28;20209;-59
2022/05/17 09:31:28;;;;;;;4.88;1.83;;;;;;;;;;5004763;28;20217;-60
2022/05/17 09:33:57;;;;;;;3.35;1.60;;;;;;;;;;5006081;28;20207;-60
2022/05/17 09:36:27;;;;;;;1.73;1.60;;;;;;;;;;5000902;28;20210;-59
2022/05/17 09:38:54;;;;;;;3.28;2.00;;;;;;;;;;4990250;28;20215;-60
2022/05/17 09:41:25;;;;;;;1.75;1.52;;;;;;;;;;5007054;28;20769;-60
2022/05/17 09:43:53;;;;;;;1.63;1.40;;;;;;;;;;4988902;28;20309;-60
2022/05/17 09:46:29;;;;;;;1.83;1.15;;;;;;;;;;5005286;28;20220;-61
2022/05/17 09:54:39;;;;;;;1.85;1.67;;;;;;;;;;4987451;28;20361;-61
2022/05/17 09:57:14;;;;;;;1.50;1.38;;;;;;;;;;4992864;28;20296;-61
2022/05/17 09:59:41;;;;;;;2.80;1.77;;;;;;;;;;4995467;28;20218;-61
2022/05/17 10:02:25;;;;;;;3.03;1.85;;;;;;;;;;4997713;28;20298;-60
2022/05/17 10:04:52;;;;;;;1.75;1.52;;;;;;;;;;4988688;28;20217;-60
2022/05/17 10:07:29;;;;;;;1.58;1.40;;;;;;;;;;4987811;28;20226;-61
2022/05/17 10:09:56;;;;;;;2.55;1.30;;;;;;;;;;5004156;28;20225;-60
2022/05/17 10:12:27;;;;;;;1.27;1.20;;;;;;;;;;4995730;28;20261;-60
2022/05/17 10:14:56;;;;;;;1.38;1.25;;;;;;;;;;4987426;28;20224;-61
2022/05/17 10:17:28;;;;;;;3.40;1.63;;;;;;;;;;4987763;28;20295;-60
2022/05/17 10:19:57;;;;;;;2.67;1.17;;;;;;;;;;4986962;28;20758;-62
2022/05/17 10:22:28;;;;;;;2.83;1.33;;;;;;;;;;4989554;28;20223;-60
2022/05/17 10:24:56;;;;;;;1.27;1.25;;;;;;;;;;4987028;28;20232;-60
2022/05/17 10:27:27;;;;;;;1.10;1.02;;;;;;;;;;4992396;28;20680;-60
2022/05/17 10:29:55;;;;;;;2.83;1.42;;;;;;;;;;4987005;28;20244;-60
2022/05/17 10:32:27;;;;;;;1.80;1.10;;;;;;;;;;5000177;28;20751;-61
2022/05/17 10:34:57;;;;;;;1.73;1.13;;;;;;;;;;4999465;28;20217;-60
2022/05/17 10:37:27;;;;;;;0.77;0.77;;;;;;;;;;4992668;28;20221;-60
2022/05/17 10:39:57;;;;;;;0.80;0.80;;;;;;;;;;5003248;28;20205;-61
2022/05/17 10:42:27;;;;;;;0.70;0.70;;;;;;;;;;5006600;28;20209;-60
2022/05/17 10:44:55;;;;;;;1.05;0.95;;;;;;;;;;5003257;28;20205;-60
2022/05/17 10:47:34;;;;;;;1.13;0.73;;;;;;;;;;4991063;28;20237;-61
2022/05/17 10:50:22;;;;;;;2.17;1.00;;;;;;;;;;4967263;28;20249;-61
2022/05/17 10:52:56;;;;;;;0.80;0.80;;;;;;;;;;4966211;28;20214;-60
2022/05/17 10:55:27;;;;;;;1.02;0.95;;;;;;;;;;4987187;28;20213;-65
2022/05/17 10:57:57;;;;;;;0.77;0.70;;;;;;;;;;4996929;28;20198;-61
2022/05/17 11:00:27;;;;;;;1.67;0.90;;;;;;;;;;4986624;28;20228;-61
2022/05/17 11:03:16;;;;;;;1.45;0.85;;;;;;;;;;4981092;28;20206;-61
2022/05/17 11:05:54;;;;;;;0.60;0.60;;;;;;;;;;4996107;28;20209;-61
2022/05/17 11:08:25;;;;;;;0.90;0.90;;;;;;;;;;4987134;28;20225;-61
2022/05/17 11:10:58;;;;;;;0.90;0.73;;;;;;;;;;4986540;28;20214;-61
2022/05/17 11:13:28;;;;;;;2.20;0.73;;;;;;;;;;4986211;28;20237;-60
2022/05/17 11:15:58;;;;;;;0.80;0.73;;;;;;;;;;4986990;28;20564;-60
2022/05/17 11:18:29;;;;;;;1.58;0.77;;;;;;;;;;4994387;28;20810;-61
2022/05/17 11:21:01;;;;;;;1.45;0.70;;;;;;;;;;4987957;28;20646;-61
2022/05/17 11:23:40;;;;;;;1.20;0.75;;;;;;;;;;4985402;28;20210;-64
2022/05/17 11:26:21;;;;;;;1.30;1.15;;;;;;;;;;4998494;28;20359;-60
2022/05/17 11:29:00;;;;;;;0.88;0.75;;;;;;;;;;5003576;28;20259;-61
2022/05/17 11:31:37;;;;;;;0.82;0.73;;;;;;;;;;4988885;28;20216;-60
2022/05/17 11:34:22;;;;;;;0.80;0.80;;;;;;;;;;4985372;28;20217;-64
2022/05/17 11:36:50;;;;;;;1.08;0.93;;;;;;;;;;4972523;28;20216;-63
2022/05/17 11:39:39;;;;;;;2.50;0.90;;;;;;;;;;4986921;28;20308;-64
2022/05/17 11:42:09;;;;;;;2.38;0.90;;;;;;;;;;5004738;28;20294;-61
2022/05/17 11:44:45;;;;;;;0.90;0.80;;;;;;;;;;5003039;28;20731;-62
2022/05/17 11:47:28;;;;;;;0.95;0.80;;;;;;;;;;4985619;28;20331;-60
2022/05/17 11:50:15;;;;;;;1.10;0.88;;;;;;;;;;4985447;28;20213;-60
2022/05/17 11:52:42;;;;;;;1.90;0.88;;;;;;;;;;4984140;28;20299;-61
2022/05/17 11:55:10;;;;;;;1.58;0.90;;;;;;;;;;4983006;28;20221;-60
2022/05/17 11:58:03;;;;;;;0.80;0.80;;;;;;;;;;4986168;28;20323;-61
2022/05/17 12:00:42;;;;;;;1.20;1.10;;;;;;;;;;4991279;28;20235;-61
2022/05/17 12:03:19;;;;;;;2.25;0.80;;;;;;;;;;4978946;28;20216;-61
2022/05/17 12:05:57;;;;;;;0.98;0.82;;;;;;;;;;4984934;28;20217;-61
2022/05/17 12:08:30;;;;;;;1.20;0.80;;;;;;;;;;4984842;28;20935;-60
2022/05/17 12:11:00;;;;;;;0.85;0.82;;;;;;;;;;4985168;28;20943;-61
2022/05/17 12:13:28;;;;;;;0.77;0.70;;;;;;;;;;5003859;28;20233;-61
2022/05/17 12:15:58;;;;;;;2.25;0.98;;;;;;;;;;4995559;28;20213;-61
2022/05/17 12:18:33;;;;;;;1.13;0.60;;;;;;;;;;4984827;28;20221;-61
2022/05/17 12:21:12;;;;;;;1.00;1.00;;;;;;;;;;4985041;28;20307;-61
2022/05/17 12:23:41;;;;;;;0.90;0.60;;;;;;;;;;4996885;28;20268;-61
2022/05/17 12:26:10;;;;;;;0.80;0.80;;;;;;;;;;4987150;28;20206;-60
2022/05/17 12:28:39;;;;;;;0.80;0.80;;;;;;;;;;4984734;28;20213;-61
2022/05/17 12:31:08;;;;;;;0.63;0.63;;;;;;;;;;4984907;28;20287;-61
2022/05/17 12:33:42;;;;;;;0.70;0.70;;;;;;;;;;4984990;28;20232;-61
2022/05/17 12:36:14;;;;;;;0.80;0.80;;;;;;;;;;4991781;28;20723;-61
2022/05/17 12:44:13;;;;;;;1.52;0.70;;;;;;;;;;4984958;28;20263;-61
2022/05/17 12:46:42;;;;;;;1.73;0.90;;;;;;;;;;4986022;28;20217;-60
2022/05/17 12:49:15;;;;;;;0.75;0.75;;;;;;;;;;4995582;28;20244;-60
2022/05/17 12:51:42;;;;;;;1.17;1.08;;;;;;;;;;4989586;28;20213;-60
2022/05/17 12:54:11;;;;;;;0.75;0.75;;;;;;;;;;4984792;28;20306;-60
2022/05/17 12:56:43;;;;;;;1.65;0.70;;;;;;;;;;4987996;28;20276;-60
2022/05/17 12:59:11;;;;;;;0.77;0.77;;;;;;;;;;4985005;28;20589;-60
2022/05/17 13:01:40;;;;;;;0.73;0.70;;;;;;;;;;4984865;28;20237;-61
2022/05/17 13:04:10;;;;;;;0.88;0.70;;;;;;;;;;5000392;28;20217;-60
2022/05/17 13:06:38;;;;;;;1.05;0.70;;;;;;;;;;4997071;28;20213;-60
2022/05/17 13:09:06;;;;;;;2.17;0.90;;;;;;;;;;5002623;28;20241;-61
2022/05/17 13:11:34;;;;;;;0.90;0.90;;;;;;;;;;4994872;28;20300;-61
2022/05/17 13:14:07;;;;;;;1.13;1.00;;;;;;;;;;4993169;28;20212;-64
2022/05/17 13:16:36;;;;;;;1.00;1.00;;;;;;;;;;4993078;28;20212;-62
2022/05/17 13:19:05;;;;;;;1.10;1.00;;;;;;;;;;4982941;28;20592;-61
2022/05/17 13:21:35;;;;;;;2.58;1.30;;;;;;;;;;4993474;28;20240;-61
2022/05/17 13:24:03;;;;;;;1.00;1.00;;;;;;;;;;4986443;28;20271;-61
2022/05/17 13:26:32;;;;;;;0.93;0.93;;;;;;;;;;4996603;28;21051;-61
2022/05/17 13:29:12;;;;;;;0.90;0.90;;;;;;;;;;4987660;28;20265;-60
2022/05/17 13:31:39;;;;;;;0.82;0.82;;;;;;;;;;4989281;28;20198;-58
2022/05/17 13:34:07;;;;;;;1.15;0.80;;;;;;;;;;4991535;28;20204;-61
2022/05/17 13:36:39;;;;;;;1.27;0.80;;;;;;;;;;5005040;28;20214;-62
2022/05/17 13:39:17;;;;;;;0.77;0.77;;;;;;;;;;5003700;28;20224;-62
2022/05/17 13:41:44;;;;;;;2.40;0.98;;;;;;;;;;5000067;28;20237;-61
2022/05/17 13:44:27;;;;;;;1.80;0.60;;;;;;;;;;4988090;28;20214;-61
2022/05/17 13:46:54;;;;;;;0.73;0.73;;;;;;;;;;4988962;28;20287;-60
2022/05/17 13:49:22;;;;;;;0.70;0.70;;;;;;;;;;4987862;28;20214;-61
2022/05/17 13:51:52;;;;;;;2.28;0.95;;;;;;;;;;4987850;28;20264;-61
2022/05/17 13:54:36;;;;;;;1.75;0.80;;;;;;;;;;4990080;28;20353;-62
2022/05/17 14:00:21;;;;;;;1.13;0.90;;;;;;;;;;4972065;28;20286;-61
2022/05/17 14:02:55;;;;;;;0.90;0.88;;;;;;;;;;4987168;28;20882;-61
2022/05/17 14:05:24;;;;;;;1.30;1.05;;;;;;;;;;4984262;28;20223;-61
2022/05/17 14:07:57;;;;;;;4.25;0.88;;;;;;;;;;4991605;28;20229;-60
2022/05/17 14:13:11;;;;;;;1.75;0.80;;;;;;;;;;4997250;28;20223;-60
2022/05/17 14:15:40;;;;;;;1.38;0.80;;;;;;;;;;5006126;28;20774;-61
2022/05/17 14:18:07;;;;;;;0.70;0.70;;;;;;;;;;4998780;28;20303;-60
2022/05/17 14:20:35;;;;;;;0.80;0.80;;;;;;;;;;4986550;28;20228;-60
2022/05/17 14:23:03;;;;;;;0.70;0.70;;;;;;;;;;4991340;28;20228;-60
2022/05/17 14:25:30;;;;;;;1.27;1.15;;;;;;;;;;4987625;28;20228;-61
2022/05/17 14:27:58;;;;;;;1.00;1.00;;;;;;;;;;4987375;28;20208;-61
2022/05/17 14:30:25;;;;;;;0.80;0.80;;;;;;;;;;5006293;28;20316;-61
2022/05/17 14:32:52;;;;;;;0.85;0.85;;;;;;;;;;5006398;28;20271;-61
2022/05/17 14:35:21;;;;;;;0.70;0.70;;;;;;;;;;5005521;28;20209;-61
2022/05/17 14:37:48;;;;;;;0.90;0.90;;;;;;;;;;5006094;28;20219;-61
2022/05/17 14:40:17;;;;;;;1.00;1.00;;;;;;;;;;4986543;28;20214;-61
2022/05/17 14:42:44;;;;;;;1.17;0.70;;;;;;;;;;5003924;28;20239;-61
2022/05/17 14:45:11;;;;;;;1.23;1.00;;;;;;;;;;5005923;28;20228;-60
2022/05/17 14:47:41;;;;;;;0.90;0.90;;;;;;;;;;5005841;28;20244;-61
2022/05/17 14:50:09;;;;;;;0.80;0.80;;;;;;;;;;5004117;28;20294;-60
2022/05/17 14:52:36;;;;;;;0.88;0.88;;;;;;;;;;5005760;28;20213;-60
2022/05/17 14:55:03;;;;;;;0.80;0.80;;;;;;;;;;4990863;28;20589;-61
2022/05/17 14:57:33;;;;;;;0.75;0.75;;;;;;;;;;5003686;28;20213;-61
2022/05/17 15:00:00;;;;;;;1.45;0.90;;;;;;;;;;5004325;28;20715;-62
2022/05/17 15:02:27;;;;;;;0.80;0.80;;;;;;;;;;5005900;28;20929;-60
2022/05/17 15:04:54;;;;;;;0.70;0.70;;;;;;;;;;5004843;28;20212;-60
2022/05/17 15:07:23;;;;;;;0.95;0.85;;;;;;;;;;5005115;28;20236;-61
2022/05/17 15:09:54;;;;;;;1.70;0.93;;;;;;;;;;4997572;28;20220;-60
2022/05/17 15:12:22;;;;;;;0.85;0.82;;;;;;;;;;4986153;28;20327;-61
2022/05/17 15:14:51;;;;;;;1.25;1.00;;;;;;;;;;4985836;28;20210;-61
2022/05/17 15:17:18;;;;;;;1.15;1.00;;;;;;;;;;4982478;28;20229;-60
2022/05/17 15:19:47;;;;;;;1.30;1.05;;;;;;;;;;4990481;28;20209;-60